Time;durP1;ratioP1;P1;durP2;ratioP2;P2;SDS_P1;SDS_P2;PMS_P1;PMS_P2;Temp;Humidity;BMP_temperature;BMP_pressure;BME280_temperature;BME280_humidity;BME280_pressure;Samples;Min_cycle;Max_cycle;Signal;HPM_P1;HPM_P2
2024/01/09 00:01:10;;;;;;;33.45;11.27;;;-5.20;99.90;;;;;;5027834;28;20041;-65
2024/01/09 00:03:35;;;;;;;26.67;8.57;;;-5.30;99.90;;;;;;5029587;28;20057;-64
2024/01/09 00:06:01;;;;;;;33.92;9.65;;;-5.30;99.90;;;;;;5027243;28;20695;-65
2024/01/09 00:08:27;;;;;;;35.60;10.52;;;-5.30;99.90;;;;;;5028136;28;20026;-67
2024/01/09 00:10:52;;;;;;;30.77;8.98;;;-5.30;99.90;;;;;;5027465;28;20112;-72
2024/01/09 00:13:18;;;;;;;36.00;11.32;;;-5.30;99.90;;;;;;5026491;28;20465;-65
2024/01/09 00:15:44;;;;;;;32.40;9.30;;;-5.30;99.90;;;;;;5040219;28;20466;-65
2024/01/09 00:18:10;;;;;;;41.85;11.73;;;-5.30;99.90;;;;;;5047256;28;20033;-64
2024/01/09 00:20:35;;;;;;;35.83;10.88;;;-5.30;99.90;;;;;;5031557;28;20524;-64
2024/01/09 00:23:01;;;;;;;29.23;9.05;;;-5.30;99.90;;;;;;5027009;28;20041;-65
2024/01/09 00:25:28;;;;;;;37.38;10.95;;;-5.30;99.90;;;;;;5039615;28;20033;-66
2024/01/09 00:27:53;;;;;;;34.03;10.15;;;-5.40;99.90;;;;;;5027847;28;20030;-71
2024/01/09 00:30:19;;;;;;;36.72;10.80;;;-5.30;99.90;;;;;;5027863;28;20377;-66
2024/01/09 00:32:48;;;;;;;29.92;9.25;;;-5.30;99.90;;;;;;5028120;28;20033;-64
2024/01/09 00:35:14;;;;;;;34.17;10.55;;;-5.40;99.90;;;;;;5030956;28;20032;-64
2024/01/09 00:37:40;;;;;;;28.77;9.50;;;-5.40;99.90;;;;;;5027670;28;20025;-64
2024/01/09 00:40:08;;;;;;;31.30;9.57;;;-5.30;99.90;;;;;;5030326;28;20032;-64
2024/01/09 00:42:33;;;;;;;35.90;10.32;;;-5.30;99.90;;;;;;5036390;28;20033;-65
2024/01/09 00:45:00;;;;;;;34.15;10.27;;;-5.40;99.90;;;;;;5026712;28;20120;-66
2024/01/09 00:47:27;;;;;;;31.90;9.77;;;-5.40;99.90;;;;;;5027004;28;20836;-65
2024/01/09 00:49:52;;;;;;;33.67;10.63;;;-5.40;99.90;;;;;;5039744;28;20064;-64
2024/01/09 00:52:18;;;;;;;31.08;10.00;;;-5.40;99.90;;;;;;5026386;28;20044;-65
2024/01/09 00:54:45;;;;;;;34.83;10.70;;;-5.40;99.90;;;;;;5027178;28;20041;-66
2024/01/09 00:57:11;;;;;;;34.03;10.32;;;-5.40;99.90;;;;;;5026988;28;20025;-64
2024/01/09 00:59:37;;;;;;;31.38;10.15;;;-5.40;99.90;;;;;;5039340;28;20037;-67
2024/01/09 01:02:02;;;;;;;30.13;10.02;;;-5.40;99.90;;;;;;5037659;28;20033;-64
2024/01/09 01:04:28;;;;;;;28.65;9.68;;;-5.40;99.90;;;;;;5027777;28;20041;-65
2024/01/09 01:06:54;;;;;;;31.52;10.65;;;-5.40;99.90;;;;;;5027867;28;20041;-66
2024/01/09 01:09:19;;;;;;;32.22;9.75;;;-5.50;99.90;;;;;;5028768;28;20037;-64
2024/01/09 01:11:45;;;;;;;32.67;10.70;;;-5.50;99.90;;;;;;5042009;28;20059;-64
2024/01/09 01:14:11;;;;;;;29.58;9.85;;;-5.50;99.90;;;;;;5049078;28;20033;-66
2024/01/09 01:16:37;;;;;;;37.00;10.20;;;-5.50;99.90;;;;;;5050873;28;20143;-66
2024/01/09 01:19:02;;;;;;;30.80;8.95;;;-5.50;99.90;;;;;;5039562;28;20045;-65
2024/01/09 01:21:28;;;;;;;31.15;10.10;;;-5.50;99.90;;;;;;5029591;28;20034;-65
2024/01/09 01:23:54;;;;;;;30.00;9.40;;;-5.50;99.90;;;;;;5032740;28;20033;-65
2024/01/09 01:26:19;;;;;;;33.60;11.13;;;-5.50;99.90;;;;;;5050416;28;20434;-65
2024/01/09 01:28:45;;;;;;;29.13;10.18;;;-5.60;99.90;;;;;;5037751;28;20039;-64
2024/01/09 01:31:11;;;;;;;32.72;9.88;;;-5.60;99.90;;;;;;5028168;28;20033;-65
2024/01/09 01:33:36;;;;;;;37.50;10.65;;;-5.60;99.90;;;;;;5030837;28;20037;-67
2024/01/09 01:36:02;;;;;;;32.58;9.88;;;-5.60;99.90;;;;;;5038201;28;20029;-68
2024/01/09 01:38:28;;;;;;;30.10;8.55;;;-5.60;99.90;;;;;;5030594;28;20037;-66
2024/01/09 01:40:53;;;;;;;34.90;9.30;;;-5.70;99.90;;;;;;5038097;28;20104;-65
2024/01/09 01:43:19;;;;;;;34.60;10.63;;;-5.60;99.90;;;;;;5048183;28;20089;-66
2024/01/09 01:45:44;;;;;;;28.90;9.70;;;-5.60;99.90;;;;;;5031104;28;20513;-64
2024/01/09 01:48:11;;;;;;;32.88;10.27;;;-5.70;99.90;;;;;;5029198;28;20042;-63
2024/01/09 01:50:38;;;;;;;36.40;10.55;;;-5.70;99.90;;;;;;5038064;28;20558;-67
2024/01/09 01:53:06;;;;;;;33.35;9.70;;;-5.70;99.90;;;;;;5036148;28;20389;-66
2024/01/09 01:55:33;;;;;;;33.20;10.10;;;-5.70;99.90;;;;;;5044971;28;20532;-68
2024/01/09 01:57:59;;;;;;;33.75;9.88;;;-5.70;99.90;;;;;;5032594;28;20041;-71
2024/01/09 02:00:26;;;;;;;30.55;10.05;;;-5.70;99.90;;;;;;5030195;28;20543;-64
2024/01/09 02:02:53;;;;;;;34.90;10.27;;;-5.70;99.90;;;;;;5030562;28;20037;-65
2024/01/09 02:05:21;;;;;;;29.73;10.23;;;-5.70;99.90;;;;;;5029724;28;20038;-65
2024/01/09 02:07:49;;;;;;;30.58;10.05;;;-5.70;99.90;;;;;;5030500;28;20021;-67
2024/01/09 02:10:16;;;;;;;29.30;8.50;;;-5.70;99.90;;;;;;5031945;28;20128;-64
2024/01/09 02:12:42;;;;;;;31.90;9.02;;;-5.70;99.90;;;;;;5029528;28;20029;-67
2024/01/09 02:15:08;;;;;;;35.75;10.10;;;-5.70;99.90;;;;;;5030191;28;20021;-65
2024/01/09 02:17:34;;;;;;;36.92;9.93;;;-5.70;99.90;;;;;;5031737;28;20037;-65
2024/01/09 02:19:59;;;;;;;28.25;9.05;;;-5.70;99.90;;;;;;5028933;28;20037;-70
2024/01/09 02:22:25;;;;;;;32.67;10.25;;;-5.70;99.90;;;;;;5045066;28;20037;-63
2024/01/09 02:24:51;;;;;;;31.35;9.68;;;-5.70;99.90;;;;;;5035165;28;20021;-65
2024/01/09 02:27:26;;;;;;;33.00;9.77;;;-5.70;99.90;;;;;;5028664;28;20088;-67
2024/01/09 02:29:52;;;;;;;29.63;9.90;;;-5.70;99.90;;;;;;5029854;28;20496;-65
2024/01/09 02:32:20;;;;;;;32.58;9.85;;;-5.70;99.90;;;;;;5029035;28;20037;-65
2024/01/09 02:34:48;;;;;;;35.28;10.52;;;-5.70;99.90;;;;;;5030766;28;20021;-63
2024/01/09 02:37:14;;;;;;;29.23;8.95;;;-5.70;99.90;;;;;;5035964;28;20029;-65
2024/01/09 02:39:40;;;;;;;36.40;10.80;;;-5.70;99.90;;;;;;5049550;28;20029;-64
2024/01/09 02:42:05;;;;;;;31.45;9.77;;;-5.70;99.90;;;;;;5037131;28;20030;-71
2024/01/09 02:44:31;;;;;;;31.80;10.30;;;-5.70;99.90;;;;;;5032991;28;20025;-65
2024/01/09 02:46:57;;;;;;;32.30;9.93;;;-5.70;99.90;;;;;;5043651;28;20052;-65
2024/01/09 02:49:22;;;;;;;35.83;9.57;;;-5.80;99.90;;;;;;5041123;28;20136;-64
2024/01/09 02:51:48;;;;;;;26.05;6.85;;;-5.70;99.90;;;;;;5034649;28;20033;-65
2024/01/09 02:54:14;;;;;;;30.10;9.73;;;-5.70;99.90;;;;;;5046720;28;20531;-65
2024/01/09 02:56:41;;;;;;;27.48;9.07;;;-5.70;99.90;;;;;;5033071;28;20479;-65
2024/01/09 02:59:07;;;;;;;31.38;9.48;;;-5.80;99.90;;;;;;5026845;28;20040;-70
2024/01/09 03:01:32;;;;;;;30.92;8.70;;;-5.80;99.90;;;;;;5029377;28;20033;-64
2024/01/09 03:03:58;;;;;;;30.58;9.45;;;-5.80;99.90;;;;;;5036580;28;20752;-66
2024/01/09 03:06:24;;;;;;;32.25;9.30;;;-5.80;99.90;;;;;;5039687;28;20111;-66
2024/01/09 03:08:49;;;;;;;35.03;9.85;;;-5.80;99.90;;;;;;5040684;28;20036;-65
2024/01/09 03:11:15;;;;;;;32.42;9.60;;;-5.80;99.90;;;;;;5027504;28;20374;-65
2024/01/09 03:13:41;;;;;;;29.55;8.65;;;-5.80;99.90;;;;;;5027149;28;20121;-66
2024/01/09 03:16:13;;;;;;;31.80;9.43;;;-5.80;99.90;;;;;;5028767;28;20112;-73
2024/01/09 03:18:40;;;;;;;32.47;9.43;;;-5.80;99.90;;;;;;5028502;28;20498;-68
2024/01/09 03:21:06;;;;;;;27.27;9.70;;;-5.90;99.90;;;;;;5028379;28;20030;-72
2024/01/09 03:23:32;;;;;;;27.27;8.82;;;-5.90;99.90;;;;;;5031138;28;20048;-68
2024/01/09 03:25:58;;;;;;;27.50;9.70;;;-5.90;99.90;;;;;;5039737;28;20036;-67
2024/01/09 03:28:24;;;;;;;28.92;9.73;;;-5.90;99.90;;;;;;5048293;28;20661;-67
2024/01/09 03:30:50;;;;;;;29.85;8.57;;;-5.90;99.90;;;;;;5045414;28;20025;-67
2024/01/09 03:33:16;;;;;;;32.78;9.82;;;-5.90;99.90;;;;;;5048091;28;20039;-66
2024/01/09 03:35:41;;;;;;;28.40;9.05;;;-5.90;99.90;;;;;;5040185;28;20192;-68
2024/01/09 03:38:07;;;;;;;26.73;8.70;;;-5.90;99.90;;;;;;5032730;28;20060;-73
2024/01/09 03:40:35;;;;;;;30.05;9.77;;;-5.90;99.90;;;;;;5038865;28;20474;-66
2024/01/09 03:43:01;;;;;;;28.35;8.82;;;-6.00;99.90;;;;;;5048306;28;20105;-68
2024/01/09 03:45:26;;;;;;;32.65;10.07;;;-6.00;99.90;;;;;;5043371;28;20649;-67
2024/01/09 03:47:52;;;;;;;34.47;9.63;;;-6.00;99.90;;;;;;5028246;28;20084;-66
2024/01/09 03:50:19;;;;;;;27.25;9.30;;;-6.00;99.90;;;;;;5027534;28;20085;-67
2024/01/09 03:52:45;;;;;;;28.20;9.88;;;-6.00;99.90;;;;;;5028379;28;20053;-65
2024/01/09 03:55:10;;;;;;;25.83;9.18;;;-6.00;99.90;;;;;;5027429;28;20017;-69
2024/01/09 03:57:36;;;;;;;33.83;9.20;;;-6.00;99.90;;;;;;5028655;28;20030;-66
2024/01/09 04:00:02;;;;;;;29.02;9.10;;;-6.00;99.90;;;;;;5033108;28;20278;-69
2024/01/09 04:02:28;;;;;;;36.17;10.13;;;-6.00;99.90;;;;;;5027968;28;20033;-68
2024/01/09 04:04:53;;;;;;;29.33;9.57;;;-6.00;99.90;;;;;;5037682;28;20055;-66
2024/01/09 04:07:19;;;;;;;29.35;9.15;;;-6.00;99.90;;;;;;5038003;28;20068;-68
2024/01/09 04:09:45;;;;;;;33.33;10.05;;;-6.00;99.90;;;;;;5043815;28;20056;-66
2024/01/09 04:12:10;;;;;;;30.60;10.13;;;-6.00;99.90;;;;;;5035191;28;20038;-72
2024/01/09 04:14:36;;;;;;;28.55;9.18;;;-6.00;99.90;;;;;;5041397;28;20120;-65
2024/01/09 04:17:01;;;;;;;33.25;9.55;;;-6.10;99.90;;;;;;5033215;28;20113;-69
2024/01/09 04:19:27;;;;;;;31.52;9.93;;;-6.00;99.90;;;;;;5038671;28;20121;-68
2024/01/09 04:21:53;;;;;;;26.25;8.57;;;-6.00;99.90;;;;;;5034168;28;20037;-67
2024/01/09 04:24:18;;;;;;;30.48;9.43;;;-6.00;99.90;;;;;;5046655;28;20036;-67
2024/01/09 04:26:44;;;;;;;30.00;9.32;;;-6.00;99.90;;;;;;5046082;28;20021;-68
2024/01/09 04:29:10;;;;;;;30.98;9.40;;;-6.00;99.90;;;;;;5027551;28;20033;-72
2024/01/09 04:31:35;;;;;;;29.73;9.63;;;-6.00;99.90;;;;;;5026588;28;20065;-66
2024/01/09 04:34:01;;;;;;;27.10;8.38;;;-6.10;99.90;;;;;;5040546;28;20124;-67
2024/01/09 04:36:26;;;;;;;25.30;8.48;;;-6.10;99.90;;;;;;5027817;28;20108;-68
2024/01/09 04:38:53;;;;;;;25.60;9.15;;;-6.10;99.90;;;;;;5035348;28;20057;-67
2024/01/09 04:41:19;;;;;;;33.97;9.75;;;-6.10;99.90;;;;;;5047900;28;20035;-66
2024/01/09 04:43:46;;;;;;;33.47;9.30;;;-6.10;99.90;;;;;;5038086;28;20437;-66
2024/01/09 04:46:12;;;;;;;41.05;10.65;;;-6.10;99.90;;;;;;5031745;28;20044;-73
2024/01/09 04:48:37;;;;;;;39.15;10.73;;;-6.10;99.90;;;;;;5043330;28;20044;-68
2024/01/09 04:51:04;;;;;;;32.38;8.55;;;-6.10;99.90;;;;;;5030442;28;20037;-66
2024/01/09 04:53:29;;;;;;;33.58;10.10;;;-6.10;99.90;;;;;;5042055;28;20029;-68
2024/01/09 04:55:55;;;;;;;38.15;10.15;;;-6.10;99.90;;;;;;5051826;28;20029;-65
2024/01/09 04:58:20;;;;;;;36.05;10.55;;;-6.20;99.90;;;;;;5038185;28;20476;-65
2024/01/09 05:00:49;;;;;;;41.42;10.80;;;-6.10;99.90;;;;;;5032204;28;20040;-65
2024/01/09 05:03:15;;;;;;;41.90;11.18;;;-6.10;99.90;;;;;;5031094;28;20104;-66
2024/01/09 05:05:40;;;;;;;41.25;12.82;;;-6.10;99.90;;;;;;5031633;28;20730;-65
2024/01/09 05:08:06;;;;;;;40.10;11.88;;;-6.20;99.90;;;;;;5040418;28;20033;-65
2024/01/09 05:10:31;;;;;;;36.65;10.10;;;-6.20;99.90;;;;;;5034548;28;20024;-69
2024/01/09 05:12:58;;;;;;;37.67;11.05;;;-6.20;99.90;;;;;;5043172;28;20021;-68
2024/01/09 05:15:23;;;;;;;34.00;9.40;;;-6.20;99.90;;;;;;5040758;28;20464;-66
2024/01/09 05:17:50;;;;;;;35.30;10.10;;;-6.20;99.90;;;;;;5051809;28;20029;-68
2024/01/09 05:20:16;;;;;;;37.90;10.80;;;-6.10;99.90;;;;;;5032632;28;20041;-66
2024/01/09 05:22:41;;;;;;;32.20;9.20;;;-6.10;99.90;;;;;;5031628;28;20045;-67
2024/01/09 05:25:08;;;;;;;36.20;9.63;;;-6.20;99.90;;;;;;5031636;28;20033;-66
2024/01/09 05:27:34;;;;;;;29.13;9.43;;;-6.20;99.90;;;;;;5031071;28;20017;-66
2024/01/09 05:29:59;;;;;;;28.73;8.82;;;-6.20;99.90;;;;;;5031010;28;20048;-67
2024/01/09 05:32:25;;;;;;;38.33;9.75;;;-6.20;99.90;;;;;;5030530;28;20033;-65
2024/01/09 05:34:51;;;;;;;32.90;10.35;;;-6.20;99.90;;;;;;5034341;28;20443;-68
2024/01/09 05:37:17;;;;;;;29.00;9.57;;;-6.10;99.90;;;;;;5040188;28;20041;-67
2024/01/09 05:39:44;;;;;;;31.38;9.30;;;-6.10;99.90;;;;;;5031969;28;20042;-66
2024/01/09 05:42:09;;;;;;;33.60;10.23;;;-6.10;99.90;;;;;;5049769;28;20078;-67
2024/01/09 05:44:35;;;;;;;27.98;9.57;;;-6.10;99.90;;;;;;5048798;28;20815;-65
2024/01/09 05:47:01;;;;;;;37.38;10.50;;;-6.10;99.90;;;;;;5045001;28;20045;-65
2024/01/09 05:49:26;;;;;;;32.40;8.80;;;-6.10;99.90;;;;;;5037182;28;20127;-65
2024/01/09 05:51:52;;;;;;;31.15;9.43;;;-6.10;99.90;;;;;;5029530;28;20041;-67
2024/01/09 05:54:17;;;;;;;27.92;9.75;;;-6.20;99.90;;;;;;5028978;28;20033;-70
2024/01/09 05:56:44;;;;;;;31.45;10.15;;;-6.20;99.90;;;;;;5030416;28;20040;-67
2024/01/09 05:59:09;;;;;;;30.50;9.48;;;-6.20;99.90;;;;;;5030140;28;20547;-70
2024/01/09 06:01:35;;;;;;;36.08;9.65;;;-6.20;99.90;;;;;;5030273;28;20100;-69
2024/01/09 06:04:00;;;;;;;27.05;7.38;;;-6.20;99.90;;;;;;5030729;28;20029;-66
2024/01/09 06:06:26;;;;;;;30.45;10.27;;;-6.20;99.90;;;;;;5031060;28;20477;-65
2024/01/09 06:08:52;;;;;;;32.38;9.77;;;-6.20;99.90;;;;;;5041417;28;20033;-68
2024/01/09 06:11:18;;;;;;;28.70;9.57;;;-6.20;99.90;;;;;;5029927;28;20719;-71
2024/01/09 06:13:43;;;;;;;35.10;9.90;;;-6.20;99.90;;;;;;5030246;28;20034;-67
2024/01/09 06:16:09;;;;;;;28.63;9.98;;;-6.20;99.90;;;;;;5029045;28;20056;-68
2024/01/09 06:18:35;;;;;;;39.58;10.25;;;-6.30;99.90;;;;;;5048188;28;20037;-65
2024/01/09 06:21:01;;;;;;;26.98;8.32;;;-6.20;99.90;;;;;;5048962;28;20052;-66
2024/01/09 06:23:26;;;;;;;32.13;8.63;;;-6.20;99.90;;;;;;5048165;28;20028;-68
2024/01/09 06:25:52;;;;;;;32.63;9.65;;;-6.20;99.90;;;;;;5050274;28;20021;-65
2024/01/09 06:28:18;;;;;;;35.78;10.07;;;-6.30;99.90;;;;;;5035988;28;20436;-72
2024/01/09 06:30:43;;;;;;;29.92;9.95;;;-6.30;99.90;;;;;;5021207;28;20065;-71
2024/01/09 06:33:09;;;;;;;33.05;9.50;;;-6.30;99.90;;;;;;5028281;28;20057;-67
2024/01/09 06:35:34;;;;;;;32.63;9.75;;;-6.30;99.90;;;;;;5028193;28;20702;-65
2024/01/09 06:38:00;;;;;;;32.10;9.23;;;-6.30;99.90;;;;;;5036594;28;20039;-66
2024/01/09 06:40:26;;;;;;;32.72;9.55;;;-6.30;99.90;;;;;;5031187;28;20024;-65
2024/01/09 06:42:52;;;;;;;32.00;9.63;;;-6.30;99.90;;;;;;5029317;28;20494;-68
2024/01/09 06:45:18;;;;;;;40.22;11.90;;;-6.30;99.90;;;;;;5028622;28;20150;-72
2024/01/09 06:47:44;;;;;;;32.08;10.30;;;-6.30;99.90;;;;;;5027658;28;20053;-67
2024/01/09 06:50:10;;;;;;;28.25;9.52;;;-6.30;99.90;;;;;;5027178;28;20454;-66
2024/01/09 06:52:36;;;;;;;40.65;10.10;;;-6.40;99.90;;;;;;5027525;28;20965;-65
2024/01/09 06:55:01;;;;;;;32.13;9.43;;;-6.40;99.90;;;;;;5026020;28;20026;-69
2024/01/09 06:57:27;;;;;;;25.67;8.93;;;-6.30;99.90;;;;;;5027155;28;20032;-67
2024/01/09 06:59:53;;;;;;;37.95;10.27;;;-6.40;99.90;;;;;;5017660;28;20083;-66
2024/01/09 07:02:18;;;;;;;33.40;10.00;;;-6.30;99.90;;;;;;5026347;28;20029;-72
2024/01/09 07:04:44;;;;;;;35.85;10.80;;;-6.40;99.90;;;;;;5023801;28;20022;-67
2024/01/09 07:07:09;;;;;;;50.25;15.30;;;-6.30;99.90;;;;;;5026426;28;21354;-66
2024/01/09 07:09:38;;;;;;;45.10;12.60;;;-6.30;99.90;;;;;;5029076;28;20049;-67
2024/01/09 07:12:04;;;;;;;38.60;11.07;;;-6.40;99.90;;;;;;5030021;28;20033;-68
2024/01/09 07:14:29;;;;;;;29.77;9.20;;;-6.40;99.90;;;;;;5027261;28;20087;-68
2024/01/09 07:16:55;;;;;;;47.47;14.88;;;-6.30;99.90;;;;;;5028327;28;20405;-68
2024/01/09 07:19:20;;;;;;;55.85;16.92;;;-6.30;99.90;;;;;;5033299;28;20072;-70
2024/01/09 07:21:46;;;;;;;37.88;11.82;;;-6.30;99.90;;;;;;5032989;28;20045;-64
2024/01/09 07:24:12;;;;;;;44.20;12.80;;;-6.30;99.90;;;;;;5031929;28;20489;-66
2024/01/09 07:26:41;;;;;;;43.28;12.35;;;-6.30;99.90;;;;;;5026182;28;20368;-67
2024/01/09 07:29:07;;;;;;;34.83;11.13;;;-6.30;99.90;;;;;;5023816;28;20022;-65
2024/01/09 07:31:32;;;;;;;40.63;11.63;;;-6.30;99.90;;;;;;5026549;28;20095;-66
2024/01/09 07:33:58;;;;;;;33.60;11.48;;;-6.30;99.90;;;;;;5025834;28;20029;-67
2024/01/09 07:36:24;;;;;;;40.03;10.55;;;-6.30;99.90;;;;;;5024690;28;20543;-71
2024/01/09 07:38:50;;;;;;;35.92;10.68;;;-6.30;99.90;;;;;;5028878;28;20036;-67
2024/01/09 07:41:17;;;;;;;44.47;14.95;;;-6.30;99.90;;;;;;5028368;28;20041;-65
2024/01/09 07:43:43;;;;;;;43.20;11.90;;;-6.20;99.90;;;;;;5025230;28;20044;-66
2024/01/09 07:46:10;;;;;;;43.25;13.57;;;-6.20;99.90;;;;;;5029871;28;20112;-65
2024/01/09 07:48:36;;;;;;;41.45;11.70;;;-6.20;99.90;;;;;;5029308;28;20034;-63
2024/01/09 07:51:02;;;;;;;42.33;12.32;;;-6.20;99.90;;;;;;5025825;28;20091;-64
2024/01/09 07:53:28;;;;;;;35.90;12.10;;;-6.10;99.90;;;;;;5026949;28;20080;-64
2024/01/09 07:55:54;;;;;;;42.45;12.05;;;-6.10;99.90;;;;;;5025762;28;20060;-62
2024/01/09 07:58:19;;;;;;;39.42;11.02;;;-6.10;99.90;;;;;;5024954;28;20029;-68
2024/01/09 08:00:46;;;;;;;36.40;11.63;;;-6.10;99.90;;;;;;5025268;28;20029;-63
2024/01/09 08:03:14;;;;;;;36.42;10.65;;;-6.00;99.90;;;;;;5026620;28;20040;-66
2024/01/09 08:05:39;;;;;;;37.60;11.65;;;-6.00;99.90;;;;;;5023654;28;20065;-65
2024/01/09 08:08:06;;;;;;;46.22;13.52;;;-5.90;99.90;;;;;;5025885;28;20104;-60
2024/01/09 08:10:31;;;;;;;41.58;11.18;;;-5.90;99.90;;;;;;5024184;28;20037;-61
2024/01/09 08:12:58;;;;;;;44.83;12.90;;;-5.80;99.90;;;;;;5029266;28;20030;-61
2024/01/09 08:15:24;;;;;;;41.75;12.50;;;-5.70;99.90;;;;;;5026760;28;20045;-63
2024/01/09 08:17:50;;;;;;;47.70;14.32;;;-5.70;99.90;;;;;;5029946;28;20482;-61
2024/01/09 08:20:15;;;;;;;54.40;16.25;;;-5.70;99.90;;;;;;5028672;28;20037;-60
2024/01/09 08:22:41;;;;;;;43.20;12.60;;;-5.60;99.90;;;;;;5027535;28;20675;-61
2024/01/09 08:25:07;;;;;;;38.65;11.48;;;-5.50;99.90;;;;;;5025432;28;20040;-61
2024/01/09 08:27:33;;;;;;;42.00;13.32;;;-5.50;99.90;;;;;;5030278;28;20033;-62
2024/01/09 08:29:58;;;;;;;39.58;12.40;;;-5.50;99.90;;;;;;5027349;28;20464;-61
2024/01/09 08:32:25;;;;;;;40.50;12.32;;;-5.40;99.90;;;;;;5032479;28;20449;-63
2024/01/09 08:34:51;;;;;;;42.08;12.20;;;-5.40;99.90;;;;;;5036978;28;20031;-61
2024/01/09 08:37:16;;;;;;;36.83;11.93;;;-5.30;99.90;;;;;;5044945;28;20045;-60
2024/01/09 08:39:42;;;;;;;42.20;12.48;;;-5.30;99.90;;;;;;5043505;28;20036;-61
2024/01/09 08:42:07;;;;;;;37.55;12.85;;;-5.20;99.90;;;;;;5042238;28;20040;-62
2024/01/09 08:44:34;;;;;;;43.40;13.55;;;-5.10;99.90;;;;;;5045395;28;20037;-61
2024/01/09 08:46:59;;;;;;;35.13;11.20;;;-5.10;99.90;;;;;;5041211;28;21658;-62
2024/01/09 08:49:25;;;;;;;35.95;11.80;;;-5.00;99.90;;;;;;5031286;28;20033;-64
2024/01/09 08:51:51;;;;;;;32.03;10.95;;;-4.90;99.90;;;;;;5063539;28;20033;-62
2024/01/09 08:54:17;;;;;;;39.58;11.02;;;-4.90;99.90;;;;;;5032001;28;20470;-62
2024/01/09 08:56:42;;;;;;;39.05;12.00;;;-4.90;99.90;;;;;;5031121;28;20129;-62
2024/01/09 08:59:09;;;;;;;40.28;10.73;;;-4.80;99.90;;;;;;5032593;28;20037;-62
2024/01/09 09:01:37;;;;;;;45.15;12.85;;;-4.70;99.90;;;;;;5030809;28;20037;-61
2024/01/09 09:04:03;;;;;;;42.58;12.65;;;-4.70;99.90;;;;;;5030443;28;20456;-62
2024/01/09 09:06:29;;;;;;;37.92;12.43;;;-4.60;99.90;;;;;;5034156;28;20036;-61
2024/01/09 09:08:55;;;;;;;41.15;12.75;;;-4.40;99.90;;;;;;5042937;28;20099;-61
2024/01/09 09:11:20;;;;;;;42.60;12.73;;;-4.40;99.90;;;;;;5031966;28;20092;-62
2024/01/09 09:13:47;;;;;;;40.92;12.93;;;-4.30;99.90;;;;;;5034223;28;20268;-61
2024/01/09 09:16:14;;;;;;;46.20;13.30;;;-4.20;99.90;;;;;;5030657;28;20471;-62
2024/01/09 09:18:40;;;;;;;40.10;11.63;;;-4.10;99.90;;;;;;5033626;28;20069;-62
2024/01/09 09:21:05;;;;;;;39.25;11.55;;;-4.00;99.90;;;;;;5030971;28;20509;-62
2024/01/09 09:23:32;;;;;;;37.47;11.13;;;-4.10;99.90;;;;;;5029959;28;20121;-61
2024/01/09 09:25:57;;;;;;;36.38;11.98;;;-4.00;99.90;;;;;;5034338;28;20674;-61
2024/01/09 09:28:23;;;;;;;42.67;12.60;;;-3.90;99.90;;;;;;5031040;28;20080;-62
2024/01/09 09:30:49;;;;;;;38.33;12.18;;;-3.90;99.90;;;;;;5030474;28;20025;-61
2024/01/09 09:33:15;;;;;;;34.85;12.30;;;-3.80;99.90;;;;;;5031468;28;20084;-61
2024/01/09 09:35:41;;;;;;;39.33;11.13;;;-3.50;99.90;;;;;;5029973;28;20489;-61
2024/01/09 09:38:06;;;;;;;39.65;11.82;;;-3.50;99.90;;;;;;5031171;28;20038;-61
2024/01/09 09:40:32;;;;;;;34.95;11.35;;;-3.40;99.90;;;;;;5030277;28;20378;-62
2024/01/09 09:43:02;;;;;;;36.30;12.10;;;-3.40;99.90;;;;;;5037815;28;20087;-62
2024/01/09 09:45:30;;;;;;;44.83;13.13;;;-3.40;99.90;;;;;;5049293;28;20035;-64
2024/01/09 09:47:56;;;;;;;35.15;11.27;;;-3.30;99.90;;;;;;5050910;28;20115;-62
2024/01/09 09:50:23;;;;;;;34.58;11.68;;;-3.10;99.90;;;;;;5045729;28;20057;-62
2024/01/09 09:52:49;;;;;;;31.75;10.80;;;-3.20;99.90;;;;;;5030201;28;20049;-62
2024/01/09 09:55:16;;;;;;;33.53;11.45;;;-3.20;99.90;;;;;;5029647;28;20352;-62
2024/01/09 09:57:42;;;;;;;35.50;12.50;;;-3.30;99.90;;;;;;5030031;28;20029;-62
2024/01/09 10:00:08;;;;;;;40.50;11.57;;;-3.30;99.90;;;;;;5030687;28;20144;-62
2024/01/09 10:02:37;;;;;;;35.45;11.27;;;-3.10;99.90;;;;;;5029964;28;20061;-62
2024/01/09 10:05:16;;;;;;;37.92;11.38;;;-3.00;99.90;;;;;;5030591;28;20041;-62
2024/01/09 10:07:46;;;;;;;35.53;12.82;;;-3.00;99.90;;;;;;5029784;28;20033;-62
2024/01/09 10:10:13;;;;;;;31.95;11.25;;;-3.00;99.90;;;;;;5030835;28;20095;-62
2024/01/09 10:12:39;;;;;;;31.83;10.98;;;-3.00;99.90;;;;;;5029592;28;20849;-62
2024/01/09 10:15:09;;;;;;;33.10;11.00;;;-3.10;99.90;;;;;;5030354;28;20531;-62
2024/01/09 10:17:41;;;;;;;39.88;11.25;;;-3.10;99.90;;;;;;5029410;28;20083;-62
2024/01/09 10:20:12;;;;;;;31.05;10.90;;;-2.90;99.90;;;;;;5030155;28;20049;-62
2024/01/09 10:22:39;;;;;;;35.50;10.80;;;-3.10;99.90;;;;;;5029736;28;20103;-62
2024/01/09 10:25:06;;;;;;;39.70;11.20;;;-3.10;99.90;;;;;;5030003;28;20486;-62
2024/01/09 10:27:38;;;;;;;38.20;10.88;;;-3.10;99.90;;;;;;5029651;28;20033;-65
2024/01/09 10:30:09;;;;;;;27.95;9.48;;;-3.00;99.90;;;;;;5030289;28;20061;-62
2024/01/09 10:32:36;;;;;;;30.65;11.13;;;-2.90;99.90;;;;;;5029464;28;20029;-62
2024/01/09 10:35:03;;;;;;;37.10;10.95;;;-3.00;99.90;;;;;;5029534;28;20029;-62
2024/01/09 10:37:33;;;;;;;39.22;11.90;;;-3.00;99.90;;;;;;5028813;28;20026;-65
2024/01/09 10:39:59;;;;;;;40.50;11.57;;;-2.90;99.90;;;;;;5030239;28;20041;-62
2024/01/09 10:42:27;;;;;;;34.30;10.82;;;-2.70;99.90;;;;;;5030719;28;20046;-62
2024/01/09 10:44:57;;;;;;;40.30;11.57;;;-2.80;99.90;;;;;;5027810;28;20107;-62
2024/01/09 10:47:24;;;;;;;27.65;10.25;;;-2.50;99.90;;;;;;5029724;28;20474;-62
2024/01/09 10:49:51;;;;;;;31.60;10.63;;;-2.40;99.90;;;;;;5028596;28;20148;-62
2024/01/09 10:52:17;;;;;;;35.30;10.90;;;-2.40;99.90;;;;;;5029677;28;20040;-62
2024/01/09 10:54:46;;;;;;;31.70;10.75;;;-2.50;99.90;;;;;;5029027;28;20029;-62
2024/01/09 10:57:16;;;;;;;38.42;12.77;;;-2.40;99.90;;;;;;5030124;28;20036;-63
2024/01/09 10:59:44;;;;;;;34.53;11.85;;;-2.10;99.90;;;;;;5029189;28;20099;-63
2024/01/09 11:02:21;;;;;;;34.63;11.50;;;-2.10;99.90;;;;;;5029672;28;20041;-63
2024/01/09 11:04:48;;;;;;;35.72;11.75;;;-1.70;99.90;;;;;;5028401;28;20524;-63
2024/01/09 11:07:15;;;;;;;35.10;10.77;;;-1.80;99.90;;;;;;5029616;28;20029;-63
2024/01/09 11:09:45;;;;;;;34.35;11.77;;;-1.70;99.90;;;;;;5028320;28;20496;-62
2024/01/09 11:12:36;;;;;;;34.95;11.45;;;-1.70;99.90;;;;;;5029730;28;20037;-63
2024/01/09 11:15:05;;;;;;;33.15;10.32;;;-1.70;99.90;;;;;;5029409;28;20041;-63
2024/01/09 11:17:33;;;;;;;36.67;10.57;;;-1.70;99.90;;;;;;5029002;28;20037;-64
2024/01/09 11:19:59;;;;;;;31.75;10.88;;;-1.70;99.90;;;;;;5028654;28;20045;-63
2024/01/09 11:22:25;;;;;;;30.33;10.23;;;-1.70;99.90;;;;;;5029382;28;20025;-63
2024/01/09 11:24:56;;;;;;;35.17;11.23;;;-1.50;99.90;;;;;;5028373;28;20028;-63
2024/01/09 11:27:22;;;;;;;32.30;10.63;;;-1.50;99.90;;;;;;5039563;28;20033;-63
2024/01/09 11:29:52;;;;;;;34.67;9.95;;;-1.40;99.90;;;;;;5046934;28;20033;-64
2024/01/09 11:32:19;;;;;;;;;;;-1.40;99.90;;;;;;5028300;28;20036;-63
2024/01/09 11:34:46;;;;;;;31.40;9.85;;;-1.20;99.90;;;;;;5028610;28;19909;-63
2024/01/09 11:37:14;;;;;;;30.77;9.48;;;-1.10;99.90;;;;;;5029019;28;20030;-63
2024/01/09 11:39:41;;;;;;;31.67;9.90;;;-1.10;99.90;;;;;;5028125;28;20068;-63
2024/01/09 11:42:06;;;;;;;32.08;9.98;;;-1.30;99.90;;;;;;5027544;28;20037;-62
2024/01/09 11:44:32;;;;;;;29.75;9.98;;;-1.30;99.90;;;;;;5028473;28;20033;-63
2024/01/09 11:46:57;;;;;;;28.30;9.82;;;-1.30;99.90;;;;;;5029603;28;20098;-63
2024/01/09 11:49:23;;;;;;;31.08;10.65;;;-1.20;99.90;;;;;;5028784;28;20543;-64
2024/01/09 11:51:49;;;;;;;29.90;9.75;;;-0.90;99.90;;;;;;5027557;28;20045;-63
2024/01/09 11:54:15;;;;;;;29.58;9.73;;;-0.90;99.90;;;;;;5029181;28;20028;-63
2024/01/09 11:56:41;;;;;;;33.42;11.18;;;-1.10;99.90;;;;;;5027881;28;20033;-63
2024/01/09 11:59:07;;;;;;;35.88;10.75;;;-1.00;99.90;;;;;;5028860;28;20033;-63
2024/01/09 12:01:33;;;;;;;31.00;10.63;;;-0.60;99.90;;;;;;5028777;28;20038;-64
2024/01/09 12:03:59;;;;;;;28.95;11.27;;;-0.50;99.90;;;;;;5028013;28;20041;-64
2024/01/09 12:06:32;;;;;;;36.13;12.18;;;-0.40;99.90;;;;;;5029024;28;20044;-64
2024/01/09 12:08:59;;;;;;;31.60;10.35;;;-0.40;99.90;;;;;;5035658;28;20895;-64
2024/01/09 12:11:25;;;;;;;27.30;10.25;;;-0.70;99.90;;;;;;5046790;28;20045;-63
2024/01/09 12:14:03;;;;;;;25.90;8.88;;;-0.70;99.90;;;;;;5027921;28;20108;-64
2024/01/09 12:16:30;;;;;;;29.77;10.55;;;-0.60;99.90;;;;;;5028216;28;20053;-64
2024/01/09 12:18:57;;;;;;;30.48;10.38;;;-0.60;99.90;;;;;;5027728;28;20662;-63
2024/01/09 12:21:26;;;;;;;31.27;9.48;;;-0.50;99.90;;;;;;5028222;28;20815;-64
2024/01/09 12:23:56;;;;;;;27.33;9.15;;;-0.20;99.90;;;;;;5047586;28;20078;-64
2024/01/09 12:26:22;;;;;;;;;;;-0.30;99.90;;;;;;5048993;28;20111;-65